sensor_id;sensor_type;location;lat;lon;timestamp;temperature;humidity
25248;DHT22;13191;47.472;11.214;2022-07-04T00:00:38;17.60;99.90
25248;DHT22;13191;47.472;11.214;2022-07-04T00:03:04;17.70;99.90
25248;DHT22;13191;47.472;11.214;2022-07-04T00:05:30;17.70;99.90
25248;DHT22;13191;47.472;11.214;2022-07-04T00:07:56;17.70;99.90
25248;DHT22;13191;47.472;11.214;2022-07-04T00:10:22;17.60;99.90
25248;DHT22;13191;47.472;11.214;2022-07-04T00:12:48;17.50;99.90
25248;DHT22;13191;47.472;11.214;2022-07-04T00:15:14;17.50;99.90
25248;DHT22;13191;47.472;11.214;2022-07-04T00:17:40;17.60;99.90
25248;DHT22;13191;47.472;11.214;2022-07-04T00:20:07;17.80;99.90
25248;DHT22;13191;47.472;11.214;2022-07-04T00:22:33;18.00;99.90
25248;DHT22;13191;47.472;11.214;2022-07-04T00:24:59;18.00;99.90
25248;DHT22;13191;47.472;11.214;2022-07-04T00:27:25;17.90;99.90
25248;DHT22;13191;47.472;11.214;2022-07-04T00:29:51;17.90;99.90
25248;DHT22;13191;47.472;11.214;2022-07-04T00:32:17;17.80;99.90
25248;DHT22;13191;47.472;11.214;2022-07-04T00:34:43;17.60;99.90
25248;DHT22;13191;47.472;11.214;2022-07-04T00:37:09;17.40;99.90
25248;DHT22;13191;47.472;11.214;2022-07-04T00:39:34;17.30;99.90
25248;DHT22;13191;47.472;11.214;2022-07-04T00:42:00;17.20;99.90
25248;DHT22;13191;47.472;11.214;2022-07-04T00:44:26;17.10;99.90
25248;DHT22;13191;47.472;11.214;2022-07-04T00:46:52;17.20;99.90
25248;DHT22;13191;47.472;11.214;2022-07-04T00:49:18;17.30;99.90
25248;DHT22;13191;47.472;11.214;2022-07-04T00:51:44;17.40;99.90
25248;DHT22;13191;47.472;11.214;2022-07-04T00:54:12;17.50;99.90
25248;DHT22;13191;47.472;11.214;2022-07-04T00:56:40;17.50;99.90
25248;DHT22;13191;47.472;11.214;2022-07-04T00:59:07;17.50;99.90
25248;DHT22;13191;47.472;11.214;2022-07-04T01:01:33;17.50;99.90
25248;DHT22;13191;47.472;11.214;2022-07-04T01:04:00;17.50;99.90
25248;DHT22;13191;47.472;11.214;2022-07-04T01:06:26;17.50;99.90
25248;DHT22;13191;47.472;11.214;2022-07-04T01:08:54;17.50;99.90
25248;DHT22;13191;47.472;11.214;2022-07-04T01:11:20;17.50;99.90
25248;DHT22;13191;47.472;11.214;2022-07-04T01:13:46;17.50;99.90
25248;DHT22;13191;47.472;11.214;2022-07-04T01:16:12;17.40;99.90
25248;DHT22;13191;47.472;11.214;2022-07-04T01:18:38;17.40;99.90
25248;DHT22;13191;47.472;11.214;2022-07-04T01:21:04;17.40;99.90
25248;DHT22;13191;47.472;11.214;2022-07-04T01:23:30;17.40;99.90
25248;DHT22;13191;47.472;11.214;2022-07-04T01:25:57;17.40;99.90
25248;DHT22;13191;47.472;11.214;2022-07-04T01:28:24;17.30;99.90
25248;DHT22;13191;47.472;11.214;2022-07-04T01:30:50;17.20;99.90
25248;DHT22;13191;47.472;11.214;2022-07-04T01:33:16;17.20;99.90
25248;DHT22;13191;47.472;11.214;2022-07-04T01:35:46;17.10;99.90
25248;DHT22;13191;47.472;11.214;2022-07-04T01:38:12;17.10;99.90
25248;DHT22;13191;47.472;11.214;2022-07-04T01:40:38;17.10;99.90
25248;DHT22;13191;47.472;11.214;2022-07-04T01:43:04;17.10;99.90
25248;DHT22;13191;47.472;11.214;2022-07-04T01:45:29;17.10;99.90
25248;DHT22;13191;47.472;11.214;2022-07-04T01:47:55;17.10;99.90
25248;DHT22;13191;47.472;11.214;2022-07-04T01:50:22;17.10;99.90
25248;DHT22;13191;47.472;11.214;2022-07-04T01:52:48;16.90;99.90
25248;DHT22;13191;47.472;11.214;2022-07-04T01:55:13;16.80;99.90
25248;DHT22;13191;47.472;11.214;2022-07-04T01:57:39;16.60;99.90
25248;DHT22;13191;47.472;11.214;2022-07-04T02:00:07;16.50;99.90
25248;DHT22;13191;47.472;11.214;2022-07-04T02:02:52;16.60;99.90
25248;DHT22;13191;47.472;11.214;2022-07-04T02:05:18;16.60;99.90
25248;DHT22;13191;47.472;11.214;2022-07-04T02:07:44;16.70;99.90
25248;DHT22;13191;47.472;11.214;2022-07-04T02:10:10;16.80;99.90
25248;DHT22;13191;47.472;11.214;2022-07-04T02:12:36;16.80;99.90
25248;DHT22;13191;47.472;11.214;2022-07-04T02:15:20;16.80;99.90
25248;DHT22;13191;47.472;11.214;2022-07-04T02:17:46;16.90;99.90
25248;DHT22;13191;47.472;11.214;2022-07-04T02:20:11;16.80;99.90
25248;DHT22;13191;47.472;11.214;2022-07-04T02:22:37;16.90;99.90
25248;DHT22;13191;47.472;11.214;2022-07-04T02:25:03;16.80;99.90
25248;DHT22;13191;47.472;11.214;2022-07-04T02:27:29;16.80;99.90
25248;DHT22;13191;47.472;11.214;2022-07-04T02:29:54;16.80;99.90
25248;DHT22;13191;47.472;11.214;2022-07-04T02:32:20;16.70;99.90
25248;DHT22;13191;47.472;11.214;2022-07-04T02:34:46;16.70;99.90
25248;DHT22;13191;47.472;11.214;2022-07-04T02:37:12;16.70;99.90
25248;DHT22;13191;47.472;11.214;2022-07-04T02:39:37;16.70;99.90
25248;DHT22;13191;47.472;11.214;2022-07-04T02:42:03;16.70;99.90
25248;DHT22;13191;47.472;11.214;2022-07-04T02:44:29;16.70;99.90
25248;DHT22;13191;47.472;11.214;2022-07-04T02:46:55;16.80;99.90
25248;DHT22;13191;47.472;11.214;2022-07-04T02:49:21;16.80;99.90
25248;DHT22;13191;47.472;11.214;2022-07-04T02:51:47;16.80;99.90
25248;DHT22;13191;47.472;11.214;2022-07-04T02:54:13;16.70;99.90
25248;DHT22;13191;47.472;11.214;2022-07-04T02:56:39;16.80;99.90
25248;DHT22;13191;47.472;11.214;2022-07-04T02:59:05;16.70;99.90
25248;DHT22;13191;47.472;11.214;2022-07-04T03:01:31;16.70;99.90
25248;DHT22;13191;47.472;11.214;2022-07-04T03:03:57;16.70;99.90
25248;DHT22;13191;47.472;11.214;2022-07-04T03:06:23;16.70;99.90
25248;DHT22;13191;47.472;11.214;2022-07-04T03:08:48;16.60;99.90
25248;DHT22;13191;47.472;11.214;2022-07-04T03:11:14;16.50;99.90
25248;DHT22;13191;47.472;11.214;2022-07-04T03:13:42;16.50;99.90
25248;DHT22;13191;47.472;11.214;2022-07-04T03:16:08;16.50;99.90
25248;DHT22;13191;47.472;11.214;2022-07-04T03:18:34;16.50;99.90
25248;DHT22;13191;47.472;11.214;2022-07-04T03:21:00;16.50;99.90
25248;DHT22;13191;47.472;11.214;2022-07-04T03:23:26;16.50;99.90
25248;DHT22;13191;47.472;11.214;2022-07-04T03:25:51;16.60;99.90
25248;DHT22;13191;47.472;11.214;2022-07-04T03:28:17;16.60;99.90
25248;DHT22;13191;47.472;11.214;2022-07-04T03:30:42;16.50;99.90
25248;DHT22;13191;47.472;11.214;2022-07-04T03:33:08;16.40;99.90
25248;DHT22;13191;47.472;11.214;2022-07-04T03:35:34;16.40;99.90
25248;DHT22;13191;47.472;11.214;2022-07-04T03:37:59;16.40;99.90
25248;DHT22;13191;47.472;11.214;2022-07-04T03:40:25;16.40;99.90
25248;DHT22;13191;47.472;11.214;2022-07-04T03:42:53;16.30;99.90
25248;DHT22;13191;47.472;11.214;2022-07-04T03:45:19;16.30;99.90
25248;DHT22;13191;47.472;11.214;2022-07-04T03:47:44;16.30;99.90
25248;DHT22;13191;47.472;11.214;2022-07-04T03:50:10;16.20;99.90
25248;DHT22;13191;47.472;11.214;2022-07-04T03:52:35;16.20;99.90
25248;DHT22;13191;47.472;11.214;2022-07-04T03:55:01;16.10;99.90
25248;DHT22;13191;47.472;11.214;2022-07-04T03:57:27;16.00;99.90
25248;DHT22;13191;47.472;11.214;2022-07-04T03:59:52;16.00;99.90
25248;DHT22;13191;47.472;11.214;2022-07-04T04:02:18;16.00;99.90
25248;DHT22;13191;47.472;11.214;2022-07-04T04:04:43;16.00;99.90
25248;DHT22;13191;47.472;11.214;2022-07-04T04:07:27;16.00;99.90
25248;DHT22;13191;47.472;11.214;2022-07-04T04:09:53;16.00;99.90
25248;DHT22;13191;47.472;11.214;2022-07-04T04:12:19;16.00;99.90
25248;DHT22;13191;47.472;11.214;2022-07-04T04:14:44;16.10;99.90
25248;DHT22;13191;47.472;11.214;2022-07-04T04:17:10;16.10;99.90
25248;DHT22;13191;47.472;11.214;2022-07-04T04:19:36;16.20;99.90
25248;DHT22;13191;47.472;11.214;2022-07-04T04:22:01;16.20;99.90
25248;DHT22;13191;47.472;11.214;2022-07-04T04:24:27;16.20;99.90
25248;DHT22;13191;47.472;11.214;2022-07-04T04:26:53;16.30;99.90
25248;DHT22;13191;47.472;11.214;2022-07-04T04:29:18;16.30;99.90
25248;DHT22;13191;47.472;11.214;2022-07-04T04:31:44;16.40;99.90
25248;DHT22;13191;47.472;11.214;2022-07-04T04:34:09;16.40;99.90
25248;DHT22;13191;47.472;11.214;2022-07-04T04:36:35;16.50;99.90
25248;DHT22;13191;47.472;11.214;2022-07-04T04:39:04;16.50;99.90
25248;DHT22;13191;47.472;11.214;2022-07-04T04:41:29;16.50;99.90
25248;DHT22;13191;47.472;11.214;2022-07-04T04:43:55;16.60;99.90
25248;DHT22;13191;47.472;11.214;2022-07-04T04:46:21;16.60;99.90
25248;DHT22;13191;47.472;11.214;2022-07-04T04:48:46;16.60;99.90
25248;DHT22;13191;47.472;11.214;2022-07-04T04:51:12;16.60;99.90
25248;DHT22;13191;47.472;11.214;2022-07-04T04:53:37;16.60;99.90
25248;DHT22;13191;47.472;11.214;2022-07-04T04:56:03;16.70;99.90
25248;DHT22;13191;47.472;11.214;2022-07-04T04:58:29;16.70;99.90
25248;DHT22;13191;47.472;11.214;2022-07-04T05:00:55;16.60;99.90
25248;DHT22;13191;47.472;11.214;2022-07-04T05:03:20;16.60;99.90
25248;DHT22;13191;47.472;11.214;2022-07-04T05:05:46;16.60;99.90
25248;DHT22;13191;47.472;11.214;2022-07-04T05:08:12;16.60;99.90
25248;DHT22;13191;47.472;11.214;2022-07-04T05:10:39;16.60;99.90
25248;DHT22;13191;47.472;11.214;2022-07-04T05:13:05;16.70;99.90
25248;DHT22;13191;47.472;11.214;2022-07-04T05:15:31;16.60;99.90
25248;DHT22;13191;47.472;11.214;2022-07-04T05:17:57;16.60;99.90
25248;DHT22;13191;47.472;11.214;2022-07-04T05:20:22;16.50;99.90
25248;DHT22;13191;47.472;11.214;2022-07-04T05:22:48;16.50;99.90
25248;DHT22;13191;47.472;11.214;2022-07-04T05:25:14;16.60;99.90
25248;DHT22;13191;47.472;11.214;2022-07-04T05:27:39;16.60;99.90
25248;DHT22;13191;47.472;11.214;2022-07-04T05:30:06;16.60;99.90
25248;DHT22;13191;47.472;11.214;2022-07-04T05:32:32;16.60;99.90
25248;DHT22;13191;47.472;11.214;2022-07-04T05:34:58;16.70;99.90
25248;DHT22;13191;47.472;11.214;2022-07-04T05:37:24;16.70;99.90
25248;DHT22;13191;47.472;11.214;2022-07-04T05:39:49;16.70;99.90
25248;DHT22;13191;47.472;11.214;2022-07-04T05:42:15;16.80;99.90
25248;DHT22;13191;47.472;11.214;2022-07-04T05:44:40;16.80;99.90
25248;DHT22;13191;47.472;11.214;2022-07-04T05:47:06;16.80;99.90
25248;DHT22;13191;47.472;11.214;2022-07-04T05:49:32;16.90;99.90
25248;DHT22;13191;47.472;11.214;2022-07-04T05:51:58;16.80;99.90
25248;DHT22;13191;47.472;11.214;2022-07-04T05:54:23;16.80;99.90
25248;DHT22;13191;47.472;11.214;2022-07-04T05:56:49;16.90;99.90
25248;DHT22;13191;47.472;11.214;2022-07-04T05:59:14;16.90;99.90
25248;DHT22;13191;47.472;11.214;2022-07-04T06:01:40;17.00;99.90
25248;DHT22;13191;47.472;11.214;2022-07-04T06:04:06;17.10;99.90
25248;DHT22;13191;47.472;11.214;2022-07-04T06:06:32;17.10;99.90
25248;DHT22;13191;47.472;11.214;2022-07-04T06:08:58;17.20;99.90
25248;DHT22;13191;47.472;11.214;2022-07-04T06:11:23;17.30;99.90
25248;DHT22;13191;47.472;11.214;2022-07-04T06:13:49;17.30;99.90
25248;DHT22;13191;47.472;11.214;2022-07-04T06:16:15;17.30;99.90
25248;DHT22;13191;47.472;11.214;2022-07-04T06:18:41;17.30;99.90
25248;DHT22;13191;47.472;11.214;2022-07-04T06:21:07;17.40;99.90
25248;DHT22;13191;47.472;11.214;2022-07-04T06:23:33;17.40;99.90
25248;DHT22;13191;47.472;11.214;2022-07-04T06:25:58;17.40;99.90
25248;DHT22;13191;47.472;11.214;2022-07-04T06:28:24;17.40;99.90
25248;DHT22;13191;47.472;11.214;2022-07-04T06:30:50;17.40;99.90
25248;DHT22;13191;47.472;11.214;2022-07-04T06:33:15;17.20;99.90
25248;DHT22;13191;47.472;11.214;2022-07-04T06:35:41;17.20;99.90
25248;DHT22;13191;47.472;11.214;2022-07-04T06:38:30;17.20;99.90
25248;DHT22;13191;47.472;11.214;2022-07-04T06:40:59;17.30;99.90
25248;DHT22;13191;47.472;11.214;2022-07-04T06:43:25;17.40;99.90
25248;DHT22;13191;47.472;11.214;2022-07-04T06:45:52;17.50;99.90
25248;DHT22;13191;47.472;11.214;2022-07-04T06:48:18;17.50;99.90
25248;DHT22;13191;47.472;11.214;2022-07-04T06:50:45;17.60;99.90
25248;DHT22;13191;47.472;11.214;2022-07-04T06:53:11;17.70;99.90
25248;DHT22;13191;47.472;11.214;2022-07-04T06:55:37;17.80;99.90
25248;DHT22;13191;47.472;11.214;2022-07-04T06:58:04;17.90;99.90
25248;DHT22;13191;47.472;11.214;2022-07-04T07:00:30;18.00;99.90
25248;DHT22;13191;47.472;11.214;2022-07-04T07:02:57;18.10;99.90
25248;DHT22;13191;47.472;11.214;2022-07-04T07:05:24;18.10;99.90
25248;DHT22;13191;47.472;11.214;2022-07-04T07:07:50;18.20;99.90
25248;DHT22;13191;47.472;11.214;2022-07-04T07:10:15;18.20;99.90
25248;DHT22;13191;47.472;11.214;2022-07-04T07:12:41;18.30;99.90
25248;DHT22;13191;47.472;11.214;2022-07-04T07:15:07;18.30;99.90
25248;DHT22;13191;47.472;11.214;2022-07-04T07:17:32;18.40;99.90
25248;DHT22;13191;47.472;11.214;2022-07-04T07:19:58;18.40;99.90
25248;DHT22;13191;47.472;11.214;2022-07-04T07:22:24;18.40;99.90
25248;DHT22;13191;47.472;11.214;2022-07-04T07:24:49;18.40;99.90
25248;DHT22;13191;47.472;11.214;2022-07-04T07:27:15;18.40;99.90
25248;DHT22;13191;47.472;11.214;2022-07-04T07:29:41;18.40;99.90
25248;DHT22;13191;47.472;11.214;2022-07-04T07:32:07;18.50;99.90
25248;DHT22;13191;47.472;11.214;2022-07-04T07:34:34;18.60;99.90
25248;DHT22;13191;47.472;11.214;2022-07-04T07:37:00;18.60;99.90
25248;DHT22;13191;47.472;11.214;2022-07-04T07:39:26;18.60;99.90
25248;DHT22;13191;47.472;11.214;2022-07-04T07:41:52;18.60;99.90
25248;DHT22;13191;47.472;11.214;2022-07-04T07:44:18;18.50;99.90
25248;DHT22;13191;47.472;11.214;2022-07-04T07:46:43;18.50;99.90
25248;DHT22;13191;47.472;11.214;2022-07-04T07:49:09;18.60;99.90
25248;DHT22;13191;47.472;11.214;2022-07-04T07:51:35;18.60;99.90
25248;DHT22;13191;47.472;11.214;2022-07-04T07:54:00;18.50;99.90
25248;DHT22;13191;47.472;11.214;2022-07-04T07:56:26;18.50;99.90
25248;DHT22;13191;47.472;11.214;2022-07-04T07:58:52;18.60;99.90
25248;DHT22;13191;47.472;11.214;2022-07-04T08:01:18;18.50;99.90
25248;DHT22;13191;47.472;11.214;2022-07-04T08:03:44;18.60;99.90
25248;DHT22;13191;47.472;11.214;2022-07-04T08:06:28;18.60;99.90
25248;DHT22;13191;47.472;11.214;2022-07-04T08:08:54;18.60;99.90
25248;DHT22;13191;47.472;11.214;2022-07-04T08:11:20;18.70;99.90
25248;DHT22;13191;47.472;11.214;2022-07-04T08:13:45;18.70;99.90
25248;DHT22;13191;47.472;11.214;2022-07-04T08:16:11;18.80;99.90
25248;DHT22;13191;47.472;11.214;2022-07-04T08:18:37;18.80;99.90
25248;DHT22;13191;47.472;11.214;2022-07-04T08:21:03;18.80;99.90
25248;DHT22;13191;47.472;11.214;2022-07-04T08:23:30;18.80;99.90
25248;DHT22;13191;47.472;11.214;2022-07-04T08:25:55;18.70;99.90
25248;DHT22;13191;47.472;11.214;2022-07-04T08:28:21;18.80;99.90
25248;DHT22;13191;47.472;11.214;2022-07-04T08:30:47;18.80;99.90
25248;DHT22;13191;47.472;11.214;2022-07-04T08:33:12;18.80;99.90
25248;DHT22;13191;47.472;11.214;2022-07-04T08:35:38;18.80;99.90
25248;DHT22;13191;47.472;11.214;2022-07-04T08:38:03;18.80;99.90
25248;DHT22;13191;47.472;11.214;2022-07-04T08:40:30;18.80;99.90
25248;DHT22;13191;47.472;11.214;2022-07-04T08:42:56;18.90;99.90
25248;DHT22;13191;47.472;11.214;2022-07-04T08:45:28;18.90;99.90
25248;DHT22;13191;47.472;11.214;2022-07-04T08:48:02;18.90;99.90
25248;DHT22;13191;47.472;11.214;2022-07-04T08:50:47;19.00;99.90
25248;DHT22;13191;47.472;11.214;2022-07-04T08:53:21;19.00;99.90
25248;DHT22;13191;47.472;11.214;2022-07-04T08:55:48;18.90;99.90
25248;DHT22;13191;47.472;11.214;2022-07-04T08:58:32;19.00;99.90
25248;DHT22;13191;47.472;11.214;2022-07-04T09:01:00;19.00;99.90
25248;DHT22;13191;47.472;11.214;2022-07-04T09:03:27;19.00;99.90
25248;DHT22;13191;47.472;11.214;2022-07-04T09:05:54;19.00;99.90
25248;DHT22;13191;47.472;11.214;2022-07-04T09:08:20;19.10;99.90
25248;DHT22;13191;47.472;11.214;2022-07-04T09:10:47;19.10;99.90
25248;DHT22;13191;47.472;11.214;2022-07-04T09:13:13;19.10;99.90
25248;DHT22;13191;47.472;11.214;2022-07-04T09:15:48;19.10;99.90
25248;DHT22;13191;47.472;11.214;2022-07-04T09:20:55;19.10;99.90
25248;DHT22;13191;47.472;11.214;2022-07-04T09:23:26;19.10;99.90
25248;DHT22;13191;47.472;11.214;2022-07-04T09:26:12;19.00;99.90
25248;DHT22;13191;47.472;11.214;2022-07-04T09:28:42;19.10;99.90
25248;DHT22;13191;47.472;11.214;2022-07-04T09:31:24;19.10;99.90
25248;DHT22;13191;47.472;11.214;2022-07-04T09:33:54;19.10;99.90
25248;DHT22;13191;47.472;11.214;2022-07-04T09:36:23;19.00;99.90
25248;DHT22;13191;47.472;11.214;2022-07-04T09:41:31;18.80;99.90
25248;DHT22;13191;47.472;11.214;2022-07-04T09:44:05;18.70;99.90
25248;DHT22;13191;47.472;11.214;2022-07-04T09:46:32;18.70;99.90
25248;DHT22;13191;47.472;11.214;2022-07-04T09:48:59;18.80;99.90
25248;DHT22;13191;47.472;11.214;2022-07-04T09:51:42;18.80;99.90
25248;DHT22;13191;47.472;11.214;2022-07-04T09:56:46;19.00;99.90
25248;DHT22;13191;47.472;11.214;2022-07-04T09:59:13;19.00;99.90
25248;DHT22;13191;47.472;11.214;2022-07-04T10:01:38;19.00;99.90
25248;DHT22;13191;47.472;11.214;2022-07-04T10:04:07;19.00;99.90
25248;DHT22;13191;47.472;11.214;2022-07-04T10:06:37;19.10;99.90
25248;DHT22;13191;47.472;11.214;2022-07-04T10:09:21;19.10;99.90
25248;DHT22;13191;47.472;11.214;2022-07-04T10:11:47;18.90;99.90
25248;DHT22;13191;47.472;11.214;2022-07-04T10:14:13;18.90;99.90
25248;DHT22;13191;47.472;11.214;2022-07-04T10:16:40;18.90;99.90
25248;DHT22;13191;47.472;11.214;2022-07-04T10:19:08;18.90;99.90
25248;DHT22;13191;47.472;11.214;2022-07-04T10:21:35;18.90;99.90
25248;DHT22;13191;47.472;11.214;2022-07-04T10:24:01;18.90;99.90
25248;DHT22;13191;47.472;11.214;2022-07-04T10:26:29;18.90;99.90
25248;DHT22;13191;47.472;11.214;2022-07-04T10:28:56;19.00;99.90
25248;DHT22;13191;47.472;11.214;2022-07-04T10:31:26;19.00;99.90
25248;DHT22;13191;47.472;11.214;2022-07-04T10:33:53;19.00;99.90
25248;DHT22;13191;47.472;11.214;2022-07-04T10:36:20;19.00;99.90
25248;DHT22;13191;47.472;11.214;2022-07-04T10:38:51;19.00;99.90
25248;DHT22;13191;47.472;11.214;2022-07-04T10:41:19;19.00;99.90
25248;DHT22;13191;47.472;11.214;2022-07-04T10:48:53;19.10;99.90
25248;DHT22;13191;47.472;11.214;2022-07-04T10:54:29;19.30;99.90
25248;DHT22;13191;47.472;11.214;2022-07-04T10:59:24;19.40;99.90
25248;DHT22;13191;47.472;11.214;2022-07-04T11:04:56;19.50;99.90
25248;DHT22;13191;47.472;11.214;2022-07-04T11:17:56;19.70;99.90
25248;DHT22;13191;47.472;11.214;2022-07-04T11:20:24;19.80;99.90
25248;DHT22;13191;47.472;11.214;2022-07-04T11:22:50;19.90;99.90
25248;DHT22;13191;47.472;11.214;2022-07-04T11:25:16;19.90;99.90
25248;DHT22;13191;47.472;11.214;2022-07-04T11:27:42;20.00;99.90
25248;DHT22;13191;47.472;11.214;2022-07-04T11:30:09;20.10;99.90
25248;DHT22;13191;47.472;11.214;2022-07-04T11:32:37;20.30;99.90
25248;DHT22;13191;47.472;11.214;2022-07-04T11:35:07;20.20;99.90
25248;DHT22;13191;47.472;11.214;2022-07-04T11:37:32;20.30;99.90
25248;DHT22;13191;47.472;11.214;2022-07-04T11:39:58;20.30;99.90
25248;DHT22;13191;47.472;11.214;2022-07-04T11:43:10;20.40;99.90
25248;DHT22;13191;47.472;11.214;2022-07-04T11:45:57;20.60;99.90
25248;DHT22;13191;47.472;11.214;2022-07-04T11:48:35;20.70;99.90
25248;DHT22;13191;47.472;11.214;2022-07-04T11:51:00;20.80;99.90
25248;DHT22;13191;47.472;11.214;2022-07-04T11:53:26;21.00;99.90
25248;DHT22;13191;47.472;11.214;2022-07-04T11:55:52;21.10;99.90
25248;DHT22;13191;47.472;11.214;2022-07-04T11:58:18;21.20;99.90
25248;DHT22;13191;47.472;11.214;2022-07-04T12:00:44;21.50;99.90
25248;DHT22;13191;47.472;11.214;2022-07-04T12:03:10;21.50;99.90
25248;DHT22;13191;47.472;11.214;2022-07-04T12:05:35;21.60;99.90
25248;DHT22;13191;47.472;11.214;2022-07-04T12:08:03;21.70;99.90
25248;DHT22;13191;47.472;11.214;2022-07-04T12:10:31;21.80;99.90
25248;DHT22;13191;47.472;11.214;2022-07-04T12:13:04;21.90;99.90
25248;DHT22;13191;47.472;11.214;2022-07-04T12:15:40;21.90;99.90
25248;DHT22;13191;47.472;11.214;2022-07-04T12:18:21;22.00;99.90
25248;DHT22;13191;47.472;11.214;2022-07-04T12:20:49;22.00;99.90
25248;DHT22;13191;47.472;11.214;2022-07-04T12:23:16;22.10;99.90
25248;DHT22;13191;47.472;11.214;2022-07-04T12:25:45;22.10;99.90
25248;DHT22;13191;47.472;11.214;2022-07-04T12:28:13;22.10;99.90
25248;DHT22;13191;47.472;11.214;2022-07-04T12:30:57;22.20;99.90
25248;DHT22;13191;47.472;11.214;2022-07-04T12:33:25;22.30;99.90
25248;DHT22;13191;47.472;11.214;2022-07-04T12:35:55;22.30;99.90
25248;DHT22;13191;47.472;11.214;2022-07-04T12:41:13;22.40;99.90
25248;DHT22;13191;47.472;11.214;2022-07-04T12:48:50;22.50;99.90
25248;DHT22;13191;47.472;11.214;2022-07-04T12:51:18;22.50;99.90
25248;DHT22;13191;47.472;11.214;2022-07-04T12:53:46;22.60;99.90
25248;DHT22;13191;47.472;11.214;2022-07-04T12:56:35;22.60;99.90
25248;DHT22;13191;47.472;11.214;2022-07-04T12:59:06;22.70;99.90
25248;DHT22;13191;47.472;11.214;2022-07-04T13:01:32;22.70;99.90
25248;DHT22;13191;47.472;11.214;2022-07-04T13:03:58;22.80;99.90
25248;DHT22;13191;47.472;11.214;2022-07-04T13:06:24;22.90;99.90
25248;DHT22;13191;47.472;11.214;2022-07-04T13:14:00;23.30;99.90
25248;DHT22;13191;47.472;11.214;2022-07-04T13:16:25;23.40;99.90
25248;DHT22;13191;47.472;11.214;2022-07-04T13:18:51;23.60;99.90
25248;DHT22;13191;47.472;11.214;2022-07-04T13:21:17;23.70;99.90
25248;DHT22;13191;47.472;11.214;2022-07-04T13:23:42;23.90;99.90
25248;DHT22;13191;47.472;11.214;2022-07-04T13:26:08;24.20;99.90
25248;DHT22;13191;47.472;11.214;2022-07-04T13:28:33;24.40;99.90
25248;DHT22;13191;47.472;11.214;2022-07-04T13:30:59;24.60;99.90
25248;DHT22;13191;47.472;11.214;2022-07-04T13:33:26;24.70;99.90
25248;DHT22;13191;47.472;11.214;2022-07-04T13:35:52;24.80;99.90
25248;DHT22;13191;47.472;11.214;2022-07-04T13:38:17;24.80;99.90
25248;DHT22;13191;47.472;11.214;2022-07-04T13:40:44;25.00;99.90
25248;DHT22;13191;47.472;11.214;2022-07-04T13:43:10;25.10;99.90
25248;DHT22;13191;47.472;11.214;2022-07-04T13:45:40;25.20;99.90
25248;DHT22;13191;47.472;11.214;2022-07-04T13:48:11;25.40;99.90
25248;DHT22;13191;47.472;11.214;2022-07-04T13:50:37;25.50;99.90
25248;DHT22;13191;47.472;11.214;2022-07-04T13:53:09;25.60;99.90
25248;DHT22;13191;47.472;11.214;2022-07-04T13:55:36;25.50;99.90
25248;DHT22;13191;47.472;11.214;2022-07-04T13:58:05;25.60;99.90
25248;DHT22;13191;47.472;11.214;2022-07-04T14:00:32;25.60;99.90
25248;DHT22;13191;47.472;11.214;2022-07-04T14:02:58;25.60;99.90
25248;DHT22;13191;47.472;11.214;2022-07-04T14:07:51;26.00;99.90
25248;DHT22;13191;47.472;11.214;2022-07-04T14:10:16;26.20;99.90
25248;DHT22;13191;47.472;11.214;2022-07-04T14:12:42;26.40;99.90
25248;DHT22;13191;47.472;11.214;2022-07-04T14:15:08;26.60;99.90
25248;DHT22;13191;47.472;11.214;2022-07-04T14:17:35;26.70;99.90
25248;DHT22;13191;47.472;11.214;2022-07-04T14:20:05;26.90;99.90
25248;DHT22;13191;47.472;11.214;2022-07-04T14:22:32;27.00;99.90
25248;DHT22;13191;47.472;11.214;2022-07-04T14:24:58;27.10;99.90
25248;DHT22;13191;47.472;11.214;2022-07-04T14:27:24;27.30;99.90
25248;DHT22;13191;47.472;11.214;2022-07-04T14:29:49;27.40;99.90
25248;DHT22;13191;47.472;11.214;2022-07-04T14:32:15;27.60;99.90
25248;DHT22;13191;47.472;11.214;2022-07-04T14:34:41;27.80;99.90
25248;DHT22;13191;47.472;11.214;2022-07-04T14:39:32;28.10;99.90
25248;DHT22;13191;47.472;11.214;2022-07-04T14:41:58;28.30;99.90
25248;DHT22;13191;47.472;11.214;2022-07-04T14:44:24;28.60;99.90
25248;DHT22;13191;47.472;11.214;2022-07-04T14:46:49;28.80;99.90
25248;DHT22;13191;47.472;11.214;2022-07-04T14:49:15;28.90;99.90
25248;DHT22;13191;47.472;11.214;2022-07-04T14:51:41;29.10;99.90
25248;DHT22;13191;47.472;11.214;2022-07-04T14:54:07;29.20;99.90
25248;DHT22;13191;47.472;11.214;2022-07-04T14:56:33;29.20;99.90
25248;DHT22;13191;47.472;11.214;2022-07-04T14:58:59;29.10;99.90
25248;DHT22;13191;47.472;11.214;2022-07-04T15:01:24;29.00;99.90
25248;DHT22;13191;47.472;11.214;2022-07-04T15:03:51;29.20;99.90
25248;DHT22;13191;47.472;11.214;2022-07-04T15:08:42;29.60;99.90
25248;DHT22;13191;47.472;11.214;2022-07-04T15:13:34;29.70;99.90
25248;DHT22;13191;47.472;11.214;2022-07-04T15:16:00;29.80;99.90
25248;DHT22;13191;47.472;11.214;2022-07-04T15:20:51;30.00;99.90
25248;DHT22;13191;47.472;11.214;2022-07-04T15:23:36;29.90;99.90
25248;DHT22;13191;47.472;11.214;2022-07-04T15:26:20;29.80;99.90
25248;DHT22;13191;47.472;11.214;2022-07-04T15:28:45;29.80;99.90
25248;DHT22;13191;47.472;11.214;2022-07-04T15:31:11;29.70;99.90
25248;DHT22;13191;47.472;11.214;2022-07-04T15:33:40;29.60;99.90
25248;DHT22;13191;47.472;11.214;2022-07-04T15:36:06;29.60;99.90
25248;DHT22;13191;47.472;11.214;2022-07-04T15:38:32;29.40;99.90
25248;DHT22;13191;47.472;11.214;2022-07-04T15:40:57;29.30;99.90
25248;DHT22;13191;47.472;11.214;2022-07-04T15:43:30;29.20;99.90
25248;DHT22;13191;47.472;11.214;2022-07-04T15:45:57;28.90;99.90
25248;DHT22;13191;47.472;11.214;2022-07-04T15:48:24;28.90;99.90
25248;DHT22;13191;47.472;11.214;2022-07-04T15:50:50;29.00;99.90
25248;DHT22;13191;47.472;11.214;2022-07-04T15:53:15;28.90;99.90
25248;DHT22;13191;47.472;11.214;2022-07-04T15:55:41;28.70;99.90
25248;DHT22;13191;47.472;11.214;2022-07-04T15:58:06;28.60;99.90
25248;DHT22;13191;47.472;11.214;2022-07-04T16:00:32;28.50;99.90
25248;DHT22;13191;47.472;11.214;2022-07-04T16:02:58;28.20;99.90
25248;DHT22;13191;47.472;11.214;2022-07-04T16:05:24;28.00;99.90
25248;DHT22;13191;47.472;11.214;2022-07-04T16:07:50;27.90;99.90
25248;DHT22;13191;47.472;11.214;2022-07-04T16:10:19;28.00;99.90
25248;DHT22;13191;47.472;11.214;2022-07-04T16:12:44;27.90;99.90